sensor_id;sensor_type;location;lat;lon;timestamp;P1;durP1;ratioP1;P2;durP2;ratioP2
30934;SDS011;51033;42.648;23.292;2023-12-29T00:01:15;10.35;;;7.00;;
30934;SDS011;51033;42.648;23.292;2023-12-29T00:03:41;10.00;;;8.07;;
30934;SDS011;51033;42.648;23.292;2023-12-29T00:06:06;11.43;;;8.43;;
30934;SDS011;51033;42.648;23.292;2023-12-29T00:08:32;12.40;;;9.52;;
30934;SDS011;51033;42.648;23.292;2023-12-29T00:10:57;11.30;;;8.15;;
30934;SDS011;51033;42.648;23.292;2023-12-29T00:13:24;10.65;;;7.20;;
30934;SDS011;51033;42.648;23.292;2023-12-29T00:15:54;8.43;;;6.03;;
30934;SDS011;51033;42.648;23.292;2023-12-29T00:18:20;7.60;;;5.35;;
30934;SDS011;51033;42.648;23.292;2023-12-29T00:20:46;9.93;;;7.07;;
30934;SDS011;51033;42.648;23.292;2023-12-29T00:23:12;11.98;;;7.72;;
30934;SDS011;51033;42.648;23.292;2023-12-29T00:25:38;15.95;;;8.38;;
30934;SDS011;51033;42.648;23.292;2023-12-29T00:28:04;11.65;;;7.75;;
30934;SDS011;51033;42.648;23.292;2023-12-29T00:30:29;15.57;;;8.48;;
30934;SDS011;51033;42.648;23.292;2023-12-29T00:32:56;11.88;;;8.02;;
30934;SDS011;51033;42.648;23.292;2023-12-29T00:35:21;14.02;;;8.90;;
30934;SDS011;51033;42.648;23.292;2023-12-29T00:37:47;14.05;;;8.93;;
30934;SDS011;51033;42.648;23.292;2023-12-29T00:40:13;9.23;;;6.70;;
30934;SDS011;51033;42.648;23.292;2023-12-29T00:42:39;9.45;;;6.53;;
30934;SDS011;51033;42.648;23.292;2023-12-29T00:45:05;12.75;;;6.85;;
30934;SDS011;51033;42.648;23.292;2023-12-29T00:47:31;12.13;;;6.53;;
30934;SDS011;51033;42.648;23.292;2023-12-29T00:49:56;12.25;;;7.90;;
30934;SDS011;51033;42.648;23.292;2023-12-29T00:52:22;8.23;;;6.53;;
30934;SDS011;51033;42.648;23.292;2023-12-29T00:54:47;10.02;;;5.93;;
30934;SDS011;51033;42.648;23.292;2023-12-29T00:57:12;10.52;;;6.05;;
30934;SDS011;51033;42.648;23.292;2023-12-29T00:59:38;8.98;;;5.35;;
30934;SDS011;51033;42.648;23.292;2023-12-29T01:02:06;11.27;;;8.23;;
30934;SDS011;51033;42.648;23.292;2023-12-29T01:04:31;19.35;;;13.32;;
30934;SDS011;51033;42.648;23.292;2023-12-29T01:06:57;33.13;;;23.52;;
30934;SDS011;51033;42.648;23.292;2023-12-29T01:09:22;17.45;;;12.98;;
30934;SDS011;51033;42.648;23.292;2023-12-29T01:11:47;19.77;;;12.38;;
30934;SDS011;51033;42.648;23.292;2023-12-29T01:14:13;11.05;;;7.30;;
30934;SDS011;51033;42.648;23.292;2023-12-29T01:16:39;12.60;;;7.57;;
30934;SDS011;51033;42.648;23.292;2023-12-29T01:19:06;11.98;;;8.00;;
30934;SDS011;51033;42.648;23.292;2023-12-29T01:21:32;14.15;;;7.88;;
30934;SDS011;51033;42.648;23.292;2023-12-29T01:24:02;11.70;;;7.93;;
30934;SDS011;51033;42.648;23.292;2023-12-29T01:26:29;10.05;;;7.82;;
30934;SDS011;51033;42.648;23.292;2023-12-29T01:28:55;12.48;;;9.25;;
30934;SDS011;51033;42.648;23.292;2023-12-29T01:31:20;10.27;;;8.23;;
30934;SDS011;51033;42.648;23.292;2023-12-29T01:33:46;8.43;;;6.63;;
30934;SDS011;51033;42.648;23.292;2023-12-29T01:36:17;9.25;;;7.93;;
30934;SDS011;51033;42.648;23.292;2023-12-29T01:38:43;8.23;;;6.45;;
30934;SDS011;51033;42.648;23.292;2023-12-29T01:41:09;11.75;;;6.10;;
30934;SDS011;51033;42.648;23.292;2023-12-29T01:43:34;8.25;;;5.97;;
30934;SDS011;51033;42.648;23.292;2023-12-29T01:46:00;11.80;;;7.35;;
30934;SDS011;51033;42.648;23.292;2023-12-29T01:48:25;14.52;;;6.88;;
30934;SDS011;51033;42.648;23.292;2023-12-29T01:50:52;10.75;;;7.97;;
30934;SDS011;51033;42.648;23.292;2023-12-29T01:53:19;14.23;;;9.05;;
30934;SDS011;51033;42.648;23.292;2023-12-29T01:55:45;9.32;;;7.95;;
30934;SDS011;51033;42.648;23.292;2023-12-29T01:58:11;16.50;;;10.30;;
30934;SDS011;51033;42.648;23.292;2023-12-29T02:00:36;17.23;;;11.00;;
30934;SDS011;51033;42.648;23.292;2023-12-29T02:03:02;17.55;;;12.25;;
30934;SDS011;51033;42.648;23.292;2023-12-29T02:05:28;23.90;;;16.17;;
30934;SDS011;51033;42.648;23.292;2023-12-29T02:07:56;26.83;;;17.45;;
30934;SDS011;51033;42.648;23.292;2023-12-29T02:10:21;22.08;;;14.27;;
30934;SDS011;51033;42.648;23.292;2023-12-29T02:12:50;17.27;;;13.10;;
30934;SDS011;51033;42.648;23.292;2023-12-29T02:15:16;18.15;;;11.98;;
30934;SDS011;51033;42.648;23.292;2023-12-29T02:17:45;17.60;;;11.20;;
30934;SDS011;51033;42.648;23.292;2023-12-29T02:20:16;18.02;;;11.38;;
30934;SDS011;51033;42.648;23.292;2023-12-29T02:22:42;15.25;;;11.23;;
30934;SDS011;51033;42.648;23.292;2023-12-29T02:25:07;13.68;;;8.38;;
30934;SDS011;51033;42.648;23.292;2023-12-29T02:30:52;7.00;;;5.15;;
30934;SDS011;51033;42.648;23.292;2023-12-29T02:33:19;8.55;;;5.38;;
30934;SDS011;51033;42.648;23.292;2023-12-29T02:35:46;8.55;;;5.65;;
30934;SDS011;51033;42.648;23.292;2023-12-29T02:38:14;6.25;;;5.20;;
30934;SDS011;51033;42.648;23.292;2023-12-29T02:40:40;6.53;;;5.05;;
30934;SDS011;51033;42.648;23.292;2023-12-29T02:43:08;7.85;;;5.43;;
30934;SDS011;51033;42.648;23.292;2023-12-29T02:45:33;6.53;;;4.85;;
30934;SDS011;51033;42.648;23.292;2023-12-29T02:47:59;5.75;;;4.50;;
30934;SDS011;51033;42.648;23.292;2023-12-29T02:50:24;6.15;;;5.18;;
30934;SDS011;51033;42.648;23.292;2023-12-29T02:52:50;9.95;;;5.97;;
30934;SDS011;51033;42.648;23.292;2023-12-29T02:55:15;7.22;;;4.90;;
30934;SDS011;51033;42.648;23.292;2023-12-29T02:57:43;8.70;;;5.45;;
30934;SDS011;51033;42.648;23.292;2023-12-29T03:00:09;12.25;;;7.55;;
30934;SDS011;51033;42.648;23.292;2023-12-29T03:02:35;12.57;;;8.82;;
30934;SDS011;51033;42.648;23.292;2023-12-29T03:05:00;10.13;;;7.75;;
30934;SDS011;51033;42.648;23.292;2023-12-29T03:07:25;11.10;;;9.10;;
30934;SDS011;51033;42.648;23.292;2023-12-29T03:09:51;13.57;;;8.73;;
30934;SDS011;51033;42.648;23.292;2023-12-29T03:12:17;15.88;;;10.70;;
30934;SDS011;51033;42.648;23.292;2023-12-29T03:14:43;14.45;;;9.45;;
30934;SDS011;51033;42.648;23.292;2023-12-29T03:17:12;17.15;;;9.75;;
30934;SDS011;51033;42.648;23.292;2023-12-29T03:19:37;20.52;;;12.40;;
30934;SDS011;51033;42.648;23.292;2023-12-29T03:22:03;21.17;;;12.45;;
30934;SDS011;51033;42.648;23.292;2023-12-29T03:24:31;19.13;;;12.80;;
30934;SDS011;51033;42.648;23.292;2023-12-29T03:26:56;25.95;;;12.93;;
30934;SDS011;51033;42.648;23.292;2023-12-29T03:29:22;22.17;;;13.27;;
30934;SDS011;51033;42.648;23.292;2023-12-29T03:31:47;38.05;;;16.60;;
30934;SDS011;51033;42.648;23.292;2023-12-29T03:34:12;20.75;;;13.45;;
30934;SDS011;51033;42.648;23.292;2023-12-29T03:36:38;31.08;;;16.52;;
30934;SDS011;51033;42.648;23.292;2023-12-29T03:39:03;26.35;;;14.88;;
30934;SDS011;51033;42.648;23.292;2023-12-29T03:41:29;16.27;;;10.45;;
30934;SDS011;51033;42.648;23.292;2023-12-29T03:43:55;18.05;;;12.20;;
30934;SDS011;51033;42.648;23.292;2023-12-29T03:46:21;19.08;;;12.77;;
30934;SDS011;51033;42.648;23.292;2023-12-29T03:48:48;18.85;;;11.68;;
30934;SDS011;51033;42.648;23.292;2023-12-29T03:51:17;21.08;;;11.32;;
30934;SDS011;51033;42.648;23.292;2023-12-29T03:53:43;25.88;;;17.73;;
30934;SDS011;51033;42.648;23.292;2023-12-29T03:56:09;20.85;;;14.82;;
30934;SDS011;51033;42.648;23.292;2023-12-29T03:58:38;20.45;;;13.73;;
30934;SDS011;51033;42.648;23.292;2023-12-29T04:01:03;22.48;;;12.73;;
30934;SDS011;51033;42.648;23.292;2023-12-29T04:03:29;18.35;;;12.38;;
30934;SDS011;51033;42.648;23.292;2023-12-29T04:05:54;19.23;;;10.85;;
30934;SDS011;51033;42.648;23.292;2023-12-29T04:08:20;15.30;;;11.27;;
30934;SDS011;51033;42.648;23.292;2023-12-29T04:10:45;13.32;;;10.80;;
30934;SDS011;51033;42.648;23.292;2023-12-29T04:13:10;20.85;;;13.63;;
30934;SDS011;51033;42.648;23.292;2023-12-29T04:15:36;19.38;;;13.18;;
30934;SDS011;51033;42.648;23.292;2023-12-29T04:18:01;20.02;;;13.35;;
30934;SDS011;51033;42.648;23.292;2023-12-29T04:20:27;22.70;;;13.85;;
30934;SDS011;51033;42.648;23.292;2023-12-29T04:22:52;22.08;;;13.32;;
30934;SDS011;51033;42.648;23.292;2023-12-29T04:25:18;17.88;;;11.68;;
30934;SDS011;51033;42.648;23.292;2023-12-29T04:27:44;18.02;;;10.93;;
30934;SDS011;51033;42.648;23.292;2023-12-29T04:30:09;15.70;;;10.70;;
30934;SDS011;51033;42.648;23.292;2023-12-29T04:32:35;21.38;;;13.68;;
30934;SDS011;51033;42.648;23.292;2023-12-29T04:35:00;24.27;;;15.55;;
30934;SDS011;51033;42.648;23.292;2023-12-29T04:37:27;27.33;;;17.63;;
30934;SDS011;51033;42.648;23.292;2023-12-29T04:39:52;32.17;;;18.65;;
30934;SDS011;51033;42.648;23.292;2023-12-29T04:42:18;30.63;;;19.65;;
30934;SDS011;51033;42.648;23.292;2023-12-29T04:44:43;35.30;;;19.80;;
30934;SDS011;51033;42.648;23.292;2023-12-29T04:47:09;30.75;;;19.20;;
30934;SDS011;51033;42.648;23.292;2023-12-29T04:49:35;28.85;;;19.15;;
30934;SDS011;51033;42.648;23.292;2023-12-29T04:52:00;29.38;;;19.63;;
30934;SDS011;51033;42.648;23.292;2023-12-29T04:54:25;31.50;;;17.90;;
30934;SDS011;51033;42.648;23.292;2023-12-29T04:56:52;22.67;;;14.68;;
30934;SDS011;51033;42.648;23.292;2023-12-29T04:59:17;32.70;;;21.90;;
30934;SDS011;51033;42.648;23.292;2023-12-29T05:01:42;38.60;;;20.80;;
30934;SDS011;51033;42.648;23.292;2023-12-29T05:04:08;27.63;;;18.08;;
30934;SDS011;51033;42.648;23.292;2023-12-29T05:06:33;25.33;;;15.02;;
30934;SDS011;51033;42.648;23.292;2023-12-29T05:08:58;15.07;;;10.90;;
30934;SDS011;51033;42.648;23.292;2023-12-29T05:11:24;14.88;;;10.15;;
30934;SDS011;51033;42.648;23.292;2023-12-29T05:13:49;11.52;;;8.88;;
30934;SDS011;51033;42.648;23.292;2023-12-29T05:16:15;11.73;;;8.00;;
30934;SDS011;51033;42.648;23.292;2023-12-29T05:18:40;10.80;;;7.25;;
30934;SDS011;51033;42.648;23.292;2023-12-29T05:21:06;11.10;;;7.10;;
30934;SDS011;51033;42.648;23.292;2023-12-29T05:23:39;10.85;;;7.65;;
30934;SDS011;51033;42.648;23.292;2023-12-29T05:26:05;10.68;;;6.85;;
30934;SDS011;51033;42.648;23.292;2023-12-29T05:28:30;15.00;;;7.70;;
30934;SDS011;51033;42.648;23.292;2023-12-29T05:30:55;10.68;;;7.97;;
30934;SDS011;51033;42.648;23.292;2023-12-29T05:33:21;16.92;;;9.35;;
30934;SDS011;51033;42.648;23.292;2023-12-29T05:35:46;13.15;;;10.20;;
30934;SDS011;51033;42.648;23.292;2023-12-29T05:38:14;21.38;;;15.20;;
30934;SDS011;51033;42.648;23.292;2023-12-29T05:40:40;20.05;;;14.25;;
30934;SDS011;51033;42.648;23.292;2023-12-29T05:43:05;20.73;;;14.82;;
30934;SDS011;51033;42.648;23.292;2023-12-29T05:45:31;21.70;;;15.10;;
30934;SDS011;51033;42.648;23.292;2023-12-29T05:47:56;24.23;;;15.48;;
30934;SDS011;51033;42.648;23.292;2023-12-29T05:50:21;19.70;;;13.25;;
30934;SDS011;51033;42.648;23.292;2023-12-29T05:52:47;19.30;;;13.25;;
30934;SDS011;51033;42.648;23.292;2023-12-29T05:55:16;20.25;;;14.25;;
30934;SDS011;51033;42.648;23.292;2023-12-29T05:57:42;16.42;;;12.90;;
30934;SDS011;51033;42.648;23.292;2023-12-29T06:00:07;20.88;;;14.75;;
30934;SDS011;51033;42.648;23.292;2023-12-29T06:02:39;24.70;;;16.17;;
30934;SDS011;51033;42.648;23.292;2023-12-29T06:05:05;26.75;;;15.63;;
30934;SDS011;51033;42.648;23.292;2023-12-29T06:07:30;23.88;;;15.13;;
30934;SDS011;51033;42.648;23.292;2023-12-29T06:09:55;23.80;;;14.80;;
30934;SDS011;51033;42.648;23.292;2023-12-29T06:12:21;25.15;;;16.75;;
30934;SDS011;51033;42.648;23.292;2023-12-29T06:14:46;19.70;;;13.63;;
30934;SDS011;51033;42.648;23.292;2023-12-29T06:17:12;21.27;;;12.02;;
30934;SDS011;51033;42.648;23.292;2023-12-29T06:19:37;18.55;;;11.80;;
30934;SDS011;51033;42.648;23.292;2023-12-29T06:22:02;15.68;;;9.98;;
30934;SDS011;51033;42.648;23.292;2023-12-29T06:24:29;15.70;;;10.50;;
30934;SDS011;51033;42.648;23.292;2023-12-29T06:26:55;13.73;;;10.75;;
30934;SDS011;51033;42.648;23.292;2023-12-29T06:29:20;15.35;;;11.20;;
30934;SDS011;51033;42.648;23.292;2023-12-29T06:31:46;18.13;;;12.23;;
30934;SDS011;51033;42.648;23.292;2023-12-29T06:34:11;15.57;;;11.02;;
30934;SDS011;51033;42.648;23.292;2023-12-29T06:36:37;20.33;;;13.75;;
30934;SDS011;51033;42.648;23.292;2023-12-29T06:39:02;19.58;;;14.10;;
30934;SDS011;51033;42.648;23.292;2023-12-29T06:41:27;26.88;;;17.33;;
30934;SDS011;51033;42.648;23.292;2023-12-29T06:43:53;21.85;;;16.25;;
30934;SDS011;51033;42.648;23.292;2023-12-29T06:46:18;29.27;;;19.95;;
30934;SDS011;51033;42.648;23.292;2023-12-29T06:48:43;36.20;;;24.23;;
30934;SDS011;51033;42.648;23.292;2023-12-29T06:51:09;38.10;;;25.90;;
30934;SDS011;51033;42.648;23.292;2023-12-29T06:53:41;42.50;;;27.23;;
30934;SDS011;51033;42.648;23.292;2023-12-29T06:56:06;50.13;;;32.08;;
30934;SDS011;51033;42.648;23.292;2023-12-29T06:58:32;48.45;;;31.38;;
30934;SDS011;51033;42.648;23.292;2023-12-29T07:00:57;38.00;;;24.95;;
30934;SDS011;51033;42.648;23.292;2023-12-29T07:03:23;38.10;;;24.25;;
30934;SDS011;51033;42.648;23.292;2023-12-29T07:05:48;53.35;;;33.17;;
30934;SDS011;51033;42.648;23.292;2023-12-29T07:08:13;45.72;;;27.63;;
30934;SDS011;51033;42.648;23.292;2023-12-29T07:10:39;49.00;;;27.90;;
30934;SDS011;51033;42.648;23.292;2023-12-29T07:13:05;42.08;;;27.05;;
30934;SDS011;51033;42.648;23.292;2023-12-29T07:15:30;39.78;;;24.63;;
30934;SDS011;51033;42.648;23.292;2023-12-29T07:17:55;31.05;;;21.65;;
30934;SDS011;51033;42.648;23.292;2023-12-29T07:20:22;34.83;;;23.15;;
30934;SDS011;51033;42.648;23.292;2023-12-29T07:22:48;41.67;;;29.25;;
30934;SDS011;51033;42.648;23.292;2023-12-29T07:25:14;50.22;;;29.67;;
30934;SDS011;51033;42.648;23.292;2023-12-29T07:27:40;49.47;;;33.45;;
30934;SDS011;51033;42.648;23.292;2023-12-29T07:30:05;58.17;;;38.63;;
30934;SDS011;51033;42.648;23.292;2023-12-29T07:32:31;72.78;;;42.47;;
30934;SDS011;51033;42.648;23.292;2023-12-29T07:34:57;79.03;;;48.45;;
30934;SDS011;51033;42.648;23.292;2023-12-29T07:37:22;76.75;;;49.05;;
30934;SDS011;51033;42.648;23.292;2023-12-29T07:39:48;82.55;;;52.17;;
30934;SDS011;51033;42.648;23.292;2023-12-29T07:42:13;70.10;;;48.13;;
30934;SDS011;51033;42.648;23.292;2023-12-29T07:44:41;70.15;;;48.17;;
30934;SDS011;51033;42.648;23.292;2023-12-29T07:47:07;78.47;;;47.00;;
30934;SDS011;51033;42.648;23.292;2023-12-29T07:49:32;79.60;;;48.13;;
30934;SDS011;51033;42.648;23.292;2023-12-29T07:51:57;72.00;;;47.05;;
30934;SDS011;51033;42.648;23.292;2023-12-29T07:54:24;64.03;;;41.22;;
30934;SDS011;51033;42.648;23.292;2023-12-29T07:56:49;51.78;;;36.45;;
30934;SDS011;51033;42.648;23.292;2023-12-29T07:59:15;48.95;;;33.42;;
30934;SDS011;51033;42.648;23.292;2023-12-29T08:01:41;58.90;;;36.10;;
30934;SDS011;51033;42.648;23.292;2023-12-29T08:04:09;62.20;;;40.60;;
30934;SDS011;51033;42.648;23.292;2023-12-29T08:06:37;69.15;;;45.03;;
30934;SDS011;51033;42.648;23.292;2023-12-29T08:09:03;71.10;;;45.40;;
30934;SDS011;51033;42.648;23.292;2023-12-29T08:11:28;64.72;;;45.55;;
30934;SDS011;51033;42.648;23.292;2023-12-29T08:13:54;78.05;;;51.47;;
30934;SDS011;51033;42.648;23.292;2023-12-29T08:16:20;74.95;;;48.20;;
30934;SDS011;51033;42.648;23.292;2023-12-29T08:18:46;87.38;;;56.40;;
30934;SDS011;51033;42.648;23.292;2023-12-29T08:21:21;91.15;;;59.90;;
30934;SDS011;51033;42.648;23.292;2023-12-29T08:23:47;105.68;;;64.63;;
30934;SDS011;51033;42.648;23.292;2023-12-29T08:26:13;111.57;;;71.57;;
30934;SDS011;51033;42.648;23.292;2023-12-29T08:28:39;109.43;;;70.43;;
30934;SDS011;51033;42.648;23.292;2023-12-29T08:31:06;99.90;;;66.70;;
30934;SDS011;51033;42.648;23.292;2023-12-29T08:33:32;103.47;;;69.55;;
30934;SDS011;51033;42.648;23.292;2023-12-29T08:35:58;100.13;;;69.70;;
30934;SDS011;51033;42.648;23.292;2023-12-29T08:38:26;100.25;;;66.05;;
30934;SDS011;51033;42.648;23.292;2023-12-29T08:40:52;94.18;;;62.58;;
30934;SDS011;51033;42.648;23.292;2023-12-29T08:43:18;96.43;;;61.55;;
30934;SDS011;51033;42.648;23.292;2023-12-29T08:45:46;101.68;;;65.72;;
30934;SDS011;51033;42.648;23.292;2023-12-29T08:48:12;84.75;;;57.00;;
30934;SDS011;51033;42.648;23.292;2023-12-29T08:50:38;92.32;;;58.63;;
30934;SDS011;51033;42.648;23.292;2023-12-29T08:53:03;87.72;;;56.75;;
30934;SDS011;51033;42.648;23.292;2023-12-29T08:55:28;88.53;;;57.38;;
30934;SDS011;51033;42.648;23.292;2023-12-29T08:57:54;78.53;;;53.50;;
30934;SDS011;51033;42.648;23.292;2023-12-29T09:00:20;83.22;;;55.47;;
30934;SDS011;51033;42.648;23.292;2023-12-29T09:02:45;81.13;;;52.42;;
30934;SDS011;51033;42.648;23.292;2023-12-29T09:05:11;82.72;;;54.40;;
30934;SDS011;51033;42.648;23.292;2023-12-29T09:07:37;69.00;;;49.22;;
30934;SDS011;51033;42.648;23.292;2023-12-29T09:10:05;76.43;;;48.08;;
30934;SDS011;51033;42.648;23.292;2023-12-29T09:12:36;82.15;;;49.80;;
30934;SDS011;51033;42.648;23.292;2023-12-29T09:15:03;71.05;;;43.78;;
30934;SDS011;51033;42.648;23.292;2023-12-29T09:17:29;63.80;;;43.55;;
30934;SDS011;51033;42.648;23.292;2023-12-29T09:19:55;63.90;;;44.53;;
30934;SDS011;51033;42.648;23.292;2023-12-29T09:22:20;69.97;;;47.13;;
30934;SDS011;51033;42.648;23.292;2023-12-29T09:24:46;72.43;;;45.33;;
30934;SDS011;51033;42.648;23.292;2023-12-29T09:27:11;75.18;;;49.75;;
30934;SDS011;51033;42.648;23.292;2023-12-29T09:29:38;66.03;;;41.05;;
30934;SDS011;51033;42.648;23.292;2023-12-29T09:32:03;65.75;;;44.83;;
30934;SDS011;51033;42.648;23.292;2023-12-29T09:34:29;60.85;;;41.90;;
30934;SDS011;51033;42.648;23.292;2023-12-29T09:36:55;72.80;;;48.42;;
30934;SDS011;51033;42.648;23.292;2023-12-29T09:39:20;72.15;;;48.80;;
30934;SDS011;51033;42.648;23.292;2023-12-29T09:41:46;60.10;;;38.40;;
30934;SDS011;51033;42.648;23.292;2023-12-29T09:44:15;58.28;;;39.75;;
30934;SDS011;51033;42.648;23.292;2023-12-29T09:46:43;69.22;;;44.58;;
30934;SDS011;51033;42.648;23.292;2023-12-29T09:49:14;58.78;;;38.83;;
30934;SDS011;51033;42.648;23.292;2023-12-29T09:51:41;64.25;;;38.13;;
30934;SDS011;51033;42.648;23.292;2023-12-29T09:54:08;58.20;;;35.47;;
30934;SDS011;51033;42.648;23.292;2023-12-29T09:56:35;46.13;;;31.45;;
30934;SDS011;51033;42.648;23.292;2023-12-29T09:59:01;50.58;;;30.08;;
30934;SDS011;51033;42.648;23.292;2023-12-29T10:01:28;50.30;;;34.22;;
30934;SDS011;51033;42.648;23.292;2023-12-29T10:03:57;56.78;;;36.92;;
30934;SDS011;51033;42.648;23.292;2023-12-29T10:06:23;60.08;;;34.65;;
30934;SDS011;51033;42.648;23.292;2023-12-29T10:08:50;51.15;;;34.78;;
30934;SDS011;51033;42.648;23.292;2023-12-29T10:11:21;49.17;;;32.42;;
30934;SDS011;51033;42.648;23.292;2023-12-29T10:13:47;48.03;;;32.72;;
30934;SDS011;51033;42.648;23.292;2023-12-29T10:16:24;58.40;;;32.63;;
30934;SDS011;51033;42.648;23.292;2023-12-29T10:21:48;45.78;;;31.63;;
30934;SDS011;51033;42.648;23.292;2023-12-29T10:24:22;48.10;;;32.95;;
30934;SDS011;51033;42.648;23.292;2023-12-29T10:26:57;51.28;;;33.40;;
30934;SDS011;51033;42.648;23.292;2023-12-29T10:29:23;44.75;;;30.25;;
30934;SDS011;51033;42.648;23.292;2023-12-29T10:31:53;41.25;;;28.75;;
30934;SDS011;51033;42.648;23.292;2023-12-29T10:34:19;49.15;;;31.27;;
30934;SDS011;51033;42.648;23.292;2023-12-29T10:36:57;47.72;;;30.48;;
30934;SDS011;51033;42.648;23.292;2023-12-29T10:39:24;48.30;;;30.38;;
30934;SDS011;51033;42.648;23.292;2023-12-29T10:41:52;46.85;;;30.08;;
30934;SDS011;51033;42.648;23.292;2023-12-29T10:44:29;53.58;;;31.27;;
30934;SDS011;51033;42.648;23.292;2023-12-29T10:46:55;47.53;;;30.88;;
30934;SDS011;51033;42.648;23.292;2023-12-29T10:49:20;51.78;;;34.15;;
30934;SDS011;51033;42.648;23.292;2023-12-29T10:51:46;43.22;;;30.45;;
30934;SDS011;51033;42.648;23.292;2023-12-29T10:54:18;48.75;;;30.88;;
30934;SDS011;51033;42.648;23.292;2023-12-29T10:56:47;48.88;;;29.38;;
30934;SDS011;51033;42.648;23.292;2023-12-29T10:59:25;49.30;;;29.63;;
30934;SDS011;51033;42.648;23.292;2023-12-29T11:01:50;40.70;;;27.83;;
30934;SDS011;51033;42.648;23.292;2023-12-29T11:04:21;46.42;;;29.70;;
30934;SDS011;51033;42.648;23.292;2023-12-29T11:06:47;51.45;;;28.60;;
30934;SDS011;51033;42.648;23.292;2023-12-29T11:09:28;42.95;;;27.52;;
30934;SDS011;51033;42.648;23.292;2023-12-29T11:12:01;45.88;;;28.55;;
30934;SDS011;51033;42.648;23.292;2023-12-29T11:14:28;48.10;;;29.67;;
30934;SDS011;51033;42.648;23.292;2023-12-29T11:16:54;43.40;;;25.83;;
30934;SDS011;51033;42.648;23.292;2023-12-29T11:19:20;50.45;;;31.85;;
30934;SDS011;51033;42.648;23.292;2023-12-29T11:21:48;44.03;;;30.45;;
30934;SDS011;51033;42.648;23.292;2023-12-29T11:24:20;45.15;;;28.70;;
30934;SDS011;51033;42.648;23.292;2023-12-29T11:26:48;39.42;;;27.58;;
30934;SDS011;51033;42.648;23.292;2023-12-29T11:29:14;38.88;;;26.15;;
30934;SDS011;51033;42.648;23.292;2023-12-29T11:31:41;44.85;;;31.05;;
30934;SDS011;51033;42.648;23.292;2023-12-29T11:34:16;43.00;;;29.83;;
30934;SDS011;51033;42.648;23.292;2023-12-29T11:42:49;46.25;;;29.17;;
30934;SDS011;51033;42.648;23.292;2023-12-29T11:45:25;40.03;;;28.63;;
30934;SDS011;51033;42.648;23.292;2023-12-29T11:47:54;48.65;;;31.08;;
30934;SDS011;51033;42.648;23.292;2023-12-29T11:50:31;53.45;;;33.28;;
30934;SDS011;51033;42.648;23.292;2023-12-29T11:52:59;61.83;;;36.53;;
30934;SDS011;51033;42.648;23.292;2023-12-29T11:55:43;46.85;;;33.63;;
30934;SDS011;51033;42.648;23.292;2023-12-29T11:58:25;58.83;;;35.03;;
30934;SDS011;51033;42.648;23.292;2023-12-29T12:00:56;57.83;;;33.97;;
30934;SDS011;51033;42.648;23.292;2023-12-29T12:03:25;53.15;;;32.40;;
30934;SDS011;51033;42.648;23.292;2023-12-29T12:05:54;48.90;;;32.55;;
30934;SDS011;51033;42.648;23.292;2023-12-29T12:13:55;47.85;;;27.35;;
30934;SDS011;51033;42.648;23.292;2023-12-29T12:19:22;43.22;;;27.60;;
30934;SDS011;51033;42.648;23.292;2023-12-29T12:21:53;40.90;;;27.50;;
30934;SDS011;51033;42.648;23.292;2023-12-29T12:24:21;43.20;;;30.65;;
30934;SDS011;51033;42.648;23.292;2023-12-29T12:26:46;40.40;;;25.08;;
30934;SDS011;51033;42.648;23.292;2023-12-29T12:29:12;38.25;;;23.88;;
30934;SDS011;51033;42.648;23.292;2023-12-29T12:34:37;39.17;;;24.38;;
30934;SDS011;51033;42.648;23.292;2023-12-29T12:37:04;36.13;;;23.15;;
30934;SDS011;51033;42.648;23.292;2023-12-29T12:39:39;36.70;;;24.30;;
30934;SDS011;51033;42.648;23.292;2023-12-29T12:42:05;38.35;;;24.80;;
30934;SDS011;51033;42.648;23.292;2023-12-29T12:44:32;34.88;;;21.52;;
30934;SDS011;51033;42.648;23.292;2023-12-29T12:46:59;33.78;;;21.02;;
30934;SDS011;51033;42.648;23.292;2023-12-29T12:49:31;29.10;;;18.02;;
30934;SDS011;51033;42.648;23.292;2023-12-29T12:51:58;27.83;;;17.17;;
30934;SDS011;51033;42.648;23.292;2023-12-29T12:54:23;28.65;;;18.40;;
30934;SDS011;51033;42.648;23.292;2023-12-29T12:56:49;23.02;;;14.30;;
30934;SDS011;51033;42.648;23.292;2023-12-29T12:59:15;24.35;;;14.75;;
30934;SDS011;51033;42.648;23.292;2023-12-29T13:01:43;27.35;;;16.38;;
30934;SDS011;51033;42.648;23.292;2023-12-29T13:04:10;24.20;;;12.50;;
30934;SDS011;51033;42.648;23.292;2023-12-29T13:06:41;18.88;;;13.02;;
30934;SDS011;51033;42.648;23.292;2023-12-29T13:09:08;30.80;;;19.75;;
30934;SDS011;51033;42.648;23.292;2023-12-29T13:11:39;26.88;;;15.75;;
30934;SDS011;51033;42.648;23.292;2023-12-29T13:14:05;19.88;;;11.43;;
30934;SDS011;51033;42.648;23.292;2023-12-29T13:16:33;21.90;;;12.32;;
30934;SDS011;51033;42.648;23.292;2023-12-29T13:19:15;19.15;;;10.40;;
30934;SDS011;51033;42.648;23.292;2023-12-29T13:21:50;15.63;;;9.68;;
30934;SDS011;51033;42.648;23.292;2023-12-29T13:24:19;15.15;;;9.90;;
30934;SDS011;51033;42.648;23.292;2023-12-29T13:26:47;12.90;;;7.95;;
30934;SDS011;51033;42.648;23.292;2023-12-29T13:29:21;10.98;;;7.95;;
30934;SDS011;51033;42.648;23.292;2023-12-29T13:31:50;15.13;;;9.07;;
30934;SDS011;51033;42.648;23.292;2023-12-29T13:34:25;13.13;;;9.27;;
30934;SDS011;51033;42.648;23.292;2023-12-29T13:37:00;18.25;;;10.13;;
30934;SDS011;51033;42.648;23.292;2023-12-29T13:39:31;16.42;;;8.80;;
30934;SDS011;51033;42.648;23.292;2023-12-29T13:42:07;15.02;;;8.43;;
30934;SDS011;51033;42.648;23.292;2023-12-29T13:44:36;14.52;;;8.43;;
30934;SDS011;51033;42.648;23.292;2023-12-29T13:47:03;14.27;;;7.80;;
30934;SDS011;51033;42.648;23.292;2023-12-29T13:49:30;9.55;;;7.47;;
30934;SDS011;51033;42.648;23.292;2023-12-29T13:52:02;11.30;;;7.20;;
30934;SDS011;51033;42.648;23.292;2023-12-29T13:54:28;13.50;;;6.80;;
30934;SDS011;51033;42.648;23.292;2023-12-29T13:56:54;10.48;;;7.15;;
30934;SDS011;51033;42.648;23.292;2023-12-29T13:59:29;9.88;;;6.38;;
30934;SDS011;51033;42.648;23.292;2023-12-29T14:01:58;14.18;;;7.25;;
30934;SDS011;51033;42.648;23.292;2023-12-29T14:04:25;16.83;;;10.05;;
30934;SDS011;51033;42.648;23.292;2023-12-29T14:06:51;19.65;;;11.48;;
30934;SDS011;51033;42.648;23.292;2023-12-29T14:09:20;14.18;;;10.13;;
30934;SDS011;51033;42.648;23.292;2023-12-29T14:11:46;12.35;;;9.30;;
30934;SDS011;51033;42.648;23.292;2023-12-29T14:14:13;13.70;;;8.98;;
30934;SDS011;51033;42.648;23.292;2023-12-29T14:16:39;13.25;;;7.30;;
30934;SDS011;51033;42.648;23.292;2023-12-29T14:19:05;15.75;;;6.93;;
30934;SDS011;51033;42.648;23.292;2023-12-29T14:21:31;12.82;;;7.40;;
30934;SDS011;51033;42.648;23.292;2023-12-29T14:26:40;10.65;;;6.78;;
30934;SDS011;51033;42.648;23.292;2023-12-29T14:29:10;13.45;;;7.55;;
30934;SDS011;51033;42.648;23.292;2023-12-29T14:31:39;9.93;;;6.60;;
30934;SDS011;51033;42.648;23.292;2023-12-29T14:34:07;13.02;;;8.25;;
30934;SDS011;51033;42.648;23.292;2023-12-29T14:36:33;10.45;;;7.20;;
30934;SDS011;51033;42.648;23.292;2023-12-29T14:38:59;10.90;;;7.65;;